sensor_id;sensor_type;location;lat;lon;timestamp;pressure;altitude;pressure_sealevel;temperature
74321;BMP280;62738;45.772;4.804;2023-06-14T00:01:29;98980.19;;;23.71
74321;BMP280;62738;45.772;4.804;2023-06-14T00:03:56;98967.09;;;23.93
74321;BMP280;62738;45.772;4.804;2023-06-14T00:06:22;98970.63;;;23.52
74321;BMP280;62738;45.772;4.804;2023-06-14T00:08:51;98971.59;;;23.67
74321;BMP280;62738;45.772;4.804;2023-06-14T00:11:17;98980.94;;;23.73
74321;BMP280;62738;45.772;4.804;2023-06-14T00:13:44;98980.28;;;23.79
74321;BMP280;62738;45.772;4.804;2023-06-14T00:16:10;98978.03;;;23.71
74321;BMP280;62738;45.772;4.804;2023-06-14T00:18:38;98972.50;;;23.77
74321;BMP280;62738;45.772;4.804;2023-06-14T00:21:05;98972.59;;;23.83
74321;BMP280;62738;45.772;4.804;2023-06-14T00:23:31;98965.25;;;23.68
74321;BMP280;62738;45.772;4.804;2023-06-14T00:25:58;98963.53;;;23.53
74321;BMP280;62738;45.772;4.804;2023-06-14T00:28:25;98965.31;;;23.70
74321;BMP280;62738;45.772;4.804;2023-06-14T00:30:51;98970.00;;;23.58
74321;BMP280;62738;45.772;4.804;2023-06-14T00:33:18;98968.09;;;23.68
74321;BMP280;62738;45.772;4.804;2023-06-14T00:35:45;98969.56;;;23.71
74321;BMP280;62738;45.772;4.804;2023-06-14T00:38:11;98969.50;;;23.67
74321;BMP280;62738;45.772;4.804;2023-06-14T00:40:38;98965.88;;;23.63
74321;BMP280;62738;45.772;4.804;2023-06-14T00:43:05;98960.47;;;23.39
74321;BMP280;62738;45.772;4.804;2023-06-14T00:45:32;98971.56;;;23.27
74321;BMP280;62738;45.772;4.804;2023-06-14T00:48:03;98970.47;;;23.42
74321;BMP280;62738;45.772;4.804;2023-06-14T00:50:33;98964.72;;;23.38
74321;BMP280;62738;45.772;4.804;2023-06-14T00:53:00;98959.09;;;23.40
74321;BMP280;62738;45.772;4.804;2023-06-14T00:55:28;98964.75;;;23.04
74321;BMP280;62738;45.772;4.804;2023-06-14T00:57:55;98960.19;;;23.25
74321;BMP280;62738;45.772;4.804;2023-06-14T01:00:22;98952.94;;;23.14
74321;BMP280;62738;45.772;4.804;2023-06-14T01:02:49;98960.25;;;23.27
74321;BMP280;62738;45.772;4.804;2023-06-14T01:05:18;98964.28;;;23.16
74321;BMP280;62738;45.772;4.804;2023-06-14T01:13:05;98947.97;;;23.14
74321;BMP280;62738;45.772;4.804;2023-06-14T01:15:34;98948.16;;;23.24
74321;BMP280;62738;45.772;4.804;2023-06-14T01:18:01;98947.44;;;23.24
74321;BMP280;62738;45.772;4.804;2023-06-14T01:20:33;98948.78;;;23.21
74321;BMP280;62738;45.772;4.804;2023-06-14T01:23:03;98955.88;;;23.20
74321;BMP280;62738;45.772;4.804;2023-06-14T01:25:30;98956.91;;;23.01
74321;BMP280;62738;45.772;4.804;2023-06-14T01:28:01;98961.28;;;23.08
74321;BMP280;62738;45.772;4.804;2023-06-14T01:30:30;98956.66;;;22.90
74321;BMP280;62738;45.772;4.804;2023-06-14T01:32:57;98963.94;;;22.99
74321;BMP280;62738;45.772;4.804;2023-06-14T01:35:25;98956.38;;;22.76
74321;BMP280;62738;45.772;4.804;2023-06-14T01:37:52;98957.09;;;23.09
74321;BMP280;62738;45.772;4.804;2023-06-14T01:40:21;98952.94;;;23.14
74321;BMP280;62738;45.772;4.804;2023-06-14T01:42:49;98952.19;;;23.13
74321;BMP280;62738;45.772;4.804;2023-06-14T01:45:17;98959.13;;;23.06
74321;BMP280;62738;45.772;4.804;2023-06-14T01:47:45;98958.03;;;22.87
74321;BMP280;62738;45.772;4.804;2023-06-14T01:50:13;98959.28;;;22.78
74321;BMP280;62738;45.772;4.804;2023-06-14T01:52:40;98960.38;;;22.97
74321;BMP280;62738;45.772;4.804;2023-06-14T01:55:07;98966.31;;;22.77
74321;BMP280;62738;45.772;4.804;2023-06-14T01:57:34;98963.09;;;22.93
74321;BMP280;62738;45.772;4.804;2023-06-14T02:00:01;98959.72;;;23.01
74321;BMP280;62738;45.772;4.804;2023-06-14T02:02:30;98961.94;;;23.04
74321;BMP280;62738;45.772;4.804;2023-06-14T02:04:56;98969.72;;;23.06
74321;BMP280;62738;45.772;4.804;2023-06-14T02:07:24;98962.38;;;22.92
74321;BMP280;62738;45.772;4.804;2023-06-14T02:09:51;98963.34;;;23.05
74321;BMP280;62738;45.772;4.804;2023-06-14T02:12:17;98968.34;;;23.07
74321;BMP280;62738;45.772;4.804;2023-06-14T02:14:44;98969.50;;;22.95
74321;BMP280;62738;45.772;4.804;2023-06-14T02:17:11;98958.63;;;23.16
74321;BMP280;62738;45.772;4.804;2023-06-14T02:19:38;98961.47;;;23.16
74321;BMP280;62738;45.772;4.804;2023-06-14T02:22:05;98970.16;;;22.92
74321;BMP280;62738;45.772;4.804;2023-06-14T02:24:31;98966.78;;;22.36
74321;BMP280;62738;45.772;4.804;2023-06-14T02:26:58;98973.03;;;22.62
74321;BMP280;62738;45.772;4.804;2023-06-14T02:29:25;98972.00;;;22.79
74321;BMP280;62738;45.772;4.804;2023-06-14T02:31:52;98968.72;;;22.59
74321;BMP280;62738;45.772;4.804;2023-06-14T02:34:18;98981.25;;;22.50
74321;BMP280;62738;45.772;4.804;2023-06-14T02:36:46;98976.41;;;22.86
74321;BMP280;62738;45.772;4.804;2023-06-14T02:39:14;98984.09;;;23.18
74321;BMP280;62738;45.772;4.804;2023-06-14T02:41:40;98977.94;;;23.27
74321;BMP280;62738;45.772;4.804;2023-06-14T02:44:07;98980.19;;;23.33
74321;BMP280;62738;45.772;4.804;2023-06-14T02:46:34;98988.47;;;23.23
74321;BMP280;62738;45.772;4.804;2023-06-14T02:49:01;98987.06;;;23.24
74321;BMP280;62738;45.772;4.804;2023-06-14T02:51:27;98996.31;;;23.26
74321;BMP280;62738;45.772;4.804;2023-06-14T02:53:54;98991.41;;;23.29
74321;BMP280;62738;45.772;4.804;2023-06-14T02:56:21;98996.69;;;23.09
74321;BMP280;62738;45.772;4.804;2023-06-14T02:58:49;98997.47;;;23.13
74321;BMP280;62738;45.772;4.804;2023-06-14T03:01:16;98999.72;;;23.21
74321;BMP280;62738;45.772;4.804;2023-06-14T03:03:43;99005.63;;;23.31
74321;BMP280;62738;45.772;4.804;2023-06-14T03:06:10;99005.69;;;23.35
74321;BMP280;62738;45.772;4.804;2023-06-14T03:08:40;99006.41;;;23.02
74321;BMP280;62738;45.772;4.804;2023-06-14T03:11:08;99012.03;;;23.33
74321;BMP280;62738;45.772;4.804;2023-06-14T03:16:01;99010.03;;;23.40
74321;BMP280;62738;45.772;4.804;2023-06-14T03:18:31;99014.09;;;23.31
74321;BMP280;62738;45.772;4.804;2023-06-14T03:21:02;99010.78;;;23.07
74321;BMP280;62738;45.772;4.804;2023-06-14T03:23:29;99019.31;;;23.09
74321;BMP280;62738;45.772;4.804;2023-06-14T03:25:56;99015.13;;;23.12
74321;BMP280;62738;45.772;4.804;2023-06-14T03:28:23;99009.63;;;23.20
74321;BMP280;62738;45.772;4.804;2023-06-14T03:30:50;99015.34;;;23.24
74321;BMP280;62738;45.772;4.804;2023-06-14T03:33:16;99005.44;;;23.23
74321;BMP280;62738;45.772;4.804;2023-06-14T03:35:43;99010.13;;;23.10
74321;BMP280;62738;45.772;4.804;2023-06-14T03:38:10;99010.97;;;23.15
74321;BMP280;62738;45.772;4.804;2023-06-14T03:40:37;99012.75;;;23.00
74321;BMP280;62738;45.772;4.804;2023-06-14T03:43:03;99013.50;;;23.03
74321;BMP280;62738;45.772;4.804;2023-06-14T03:45:30;99013.56;;;23.05
74321;BMP280;62738;45.772;4.804;2023-06-14T03:47:57;99022.72;;;23.03
74321;BMP280;62738;45.772;4.804;2023-06-14T03:50:25;99011.84;;;22.91
74321;BMP280;62738;45.772;4.804;2023-06-14T03:52:51;99020.41;;;22.93
74321;BMP280;62738;45.772;4.804;2023-06-14T03:55:18;99018.94;;;22.92
74321;BMP280;62738;45.772;4.804;2023-06-14T03:57:48;99024.41;;;22.82
74321;BMP280;62738;45.772;4.804;2023-06-14T04:00:15;99020.25;;;22.85
74321;BMP280;62738;45.772;4.804;2023-06-14T04:02:42;99020.97;;;22.88
74321;BMP280;62738;45.772;4.804;2023-06-14T04:05:10;99015.25;;;22.84
74321;BMP280;62738;45.772;4.804;2023-06-14T04:07:37;99020.25;;;22.85
74321;BMP280;62738;45.772;4.804;2023-06-14T04:10:07;99023.13;;;22.89
74321;BMP280;62738;45.772;4.804;2023-06-14T04:12:34;99026.56;;;22.84
74321;BMP280;62738;45.772;4.804;2023-06-14T04:15:01;99031.47;;;22.52
74321;BMP280;62738;45.772;4.804;2023-06-14T04:17:45;99036.19;;;22.73
74321;BMP280;62738;45.772;4.804;2023-06-14T04:20:11;99032.91;;;22.82
74321;BMP280;62738;45.772;4.804;2023-06-14T04:22:38;99032.13;;;22.50
74321;BMP280;62738;45.772;4.804;2023-06-14T04:25:05;99045.47;;;21.90
74321;BMP280;62738;45.772;4.804;2023-06-14T04:27:33;99051.31;;;22.26
74321;BMP280;62738;45.772;4.804;2023-06-14T04:30:02;99050.97;;;22.12
74321;BMP280;62738;45.772;4.804;2023-06-14T04:32:29;99048.50;;;21.98
74321;BMP280;62738;45.772;4.804;2023-06-14T04:35:00;99049.06;;;21.67
74321;BMP280;62738;45.772;4.804;2023-06-14T04:37:30;99055.06;;;22.07
74321;BMP280;62738;45.772;4.804;2023-06-14T04:39:57;99053.50;;;22.29
74321;BMP280;62738;45.772;4.804;2023-06-14T04:42:24;99064.03;;;22.27
74321;BMP280;62738;45.772;4.804;2023-06-14T04:44:51;99067.16;;;21.83
74321;BMP280;62738;45.772;4.804;2023-06-14T04:47:22;99065.63;;;21.78
74321;BMP280;62738;45.772;4.804;2023-06-14T04:49:49;99063.06;;;21.88
74321;BMP280;62738;45.772;4.804;2023-06-14T04:52:17;99067.69;;;22.04
74321;BMP280;62738;45.772;4.804;2023-06-14T04:54:43;99075.78;;;22.43
74321;BMP280;62738;45.772;4.804;2023-06-14T04:57:10;99076.31;;;22.65
74321;BMP280;62738;45.772;4.804;2023-06-14T04:59:40;99081.38;;;22.41
74321;BMP280;62738;45.772;4.804;2023-06-14T05:02:07;99078.25;;;22.59
74321;BMP280;62738;45.772;4.804;2023-06-14T05:04:35;99078.53;;;21.85
74321;BMP280;62738;45.772;4.804;2023-06-14T05:07:07;99083.59;;;21.65
74321;BMP280;62738;45.772;4.804;2023-06-14T05:09:35;99085.91;;;21.73
74321;BMP280;62738;45.772;4.804;2023-06-14T05:12:03;99091.53;;;21.98
74321;BMP280;62738;45.772;4.804;2023-06-14T05:14:29;99097.22;;;22.24
74321;BMP280;62738;45.772;4.804;2023-06-14T05:16:56;99091.44;;;22.20
74321;BMP280;62738;45.772;4.804;2023-06-14T05:19:23;99095.56;;;22.43
74321;BMP280;62738;45.772;4.804;2023-06-14T05:21:50;99089.00;;;22.64
74321;BMP280;62738;45.772;4.804;2023-06-14T05:24:17;99092.59;;;22.96
74321;BMP280;62738;45.772;4.804;2023-06-14T05:26:44;99102.97;;;22.88
74321;BMP280;62738;45.772;4.804;2023-06-14T05:29:11;99095.25;;;22.90
74321;BMP280;62738;45.772;4.804;2023-06-14T05:31:38;99096.78;;;22.93
74321;BMP280;62738;45.772;4.804;2023-06-14T05:34:05;99101.59;;;23.21
74321;BMP280;62738;45.772;4.804;2023-06-14T05:36:32;99099.50;;;23.21
74321;BMP280;62738;45.772;4.804;2023-06-14T05:38:59;99102.16;;;23.83
74321;BMP280;62738;45.772;4.804;2023-06-14T05:41:26;99097.72;;;23.72
74321;BMP280;62738;45.772;4.804;2023-06-14T05:43:54;99093.84;;;23.93
74321;BMP280;62738;45.772;4.804;2023-06-14T05:46:21;99110.22;;;23.96
74321;BMP280;62738;45.772;4.804;2023-06-14T05:48:51;99110.44;;;24.07
74321;BMP280;62738;45.772;4.804;2023-06-14T05:51:18;99114.38;;;23.91
74321;BMP280;62738;45.772;4.804;2023-06-14T05:53:46;99108.00;;;24.31
74321;BMP280;62738;45.772;4.804;2023-06-14T05:56:13;99118.97;;;24.11
74321;BMP280;62738;45.772;4.804;2023-06-14T05:58:40;99109.09;;;24.53
74321;BMP280;62738;45.772;4.804;2023-06-14T06:01:07;99120.44;;;24.99
74321;BMP280;62738;45.772;4.804;2023-06-14T06:03:34;99113.06;;;24.80
74321;BMP280;62738;45.772;4.804;2023-06-14T06:06:01;99115.94;;;25.36
74321;BMP280;62738;45.772;4.804;2023-06-14T06:08:29;99122.22;;;25.27
74321;BMP280;62738;45.772;4.804;2023-06-14T06:10:56;99124.84;;;25.12
74321;BMP280;62738;45.772;4.804;2023-06-14T06:13:23;99130.19;;;25.40
74321;BMP280;62738;45.772;4.804;2023-06-14T06:15:50;99126.94;;;25.66
74321;BMP280;62738;45.772;4.804;2023-06-14T06:18:17;99133.69;;;25.35
74321;BMP280;62738;45.772;4.804;2023-06-14T06:20:43;99134.25;;;25.25
74321;BMP280;62738;45.772;4.804;2023-06-14T06:23:10;99130.38;;;24.15
74321;BMP280;62738;45.772;4.804;2023-06-14T06:25:37;99125.53;;;24.61
74321;BMP280;62738;45.772;4.804;2023-06-14T06:28:04;99124.94;;;24.71
74321;BMP280;62738;45.772;4.804;2023-06-14T06:30:31;99126.66;;;24.44
74321;BMP280;62738;45.772;4.804;2023-06-14T06:32:57;99125.66;;;24.69
74321;BMP280;62738;45.772;4.804;2023-06-14T06:35:24;99129.13;;;25.13
74321;BMP280;62738;45.772;4.804;2023-06-14T06:37:51;99131.56;;;25.35
74321;BMP280;62738;45.772;4.804;2023-06-14T06:40:18;99130.53;;;25.68
74321;BMP280;62738;45.772;4.804;2023-06-14T06:42:45;99124.00;;;26.26
74321;BMP280;62738;45.772;4.804;2023-06-14T06:45:11;99131.78;;;26.19
74321;BMP280;62738;45.772;4.804;2023-06-14T06:47:38;99127.72;;;26.43
74321;BMP280;62738;45.772;4.804;2023-06-14T06:50:05;99137.97;;;26.86
74321;BMP280;62738;45.772;4.804;2023-06-14T06:52:34;99132.44;;;27.10
74321;BMP280;62738;45.772;4.804;2023-06-14T06:55:01;99133.44;;;26.49
74321;BMP280;62738;45.772;4.804;2023-06-14T06:57:28;99128.91;;;27.20
74321;BMP280;62738;45.772;4.804;2023-06-14T06:59:58;99132.44;;;26.14
74321;BMP280;62738;45.772;4.804;2023-06-14T07:02:25;99142.50;;;26.27
74321;BMP280;62738;45.772;4.804;2023-06-14T07:04:51;99137.84;;;26.66
74321;BMP280;62738;45.772;4.804;2023-06-14T07:07:18;99155.34;;;27.45
74321;BMP280;62738;45.772;4.804;2023-06-14T07:09:45;99151.25;;;28.18
74321;BMP280;62738;45.772;4.804;2023-06-14T07:12:12;99151.22;;;28.75
74321;BMP280;62738;45.772;4.804;2023-06-14T07:14:38;99152.56;;;29.18
74321;BMP280;62738;45.772;4.804;2023-06-14T07:17:05;99156.75;;;29.33
74321;BMP280;62738;45.772;4.804;2023-06-14T07:19:32;99161.22;;;28.80
74321;BMP280;62738;45.772;4.804;2023-06-14T07:21:59;99167.63;;;28.84
74321;BMP280;62738;45.772;4.804;2023-06-14T07:24:26;99165.50;;;28.44
74321;BMP280;62738;45.772;4.804;2023-06-14T07:26:55;99166.13;;;29.11
74321;BMP280;62738;45.772;4.804;2023-06-14T07:29:22;99170.22;;;29.59
74321;BMP280;62738;45.772;4.804;2023-06-14T07:31:49;99164.63;;;29.33
74321;BMP280;62738;45.772;4.804;2023-06-14T07:34:16;99166.25;;;30.19
74321;BMP280;62738;45.772;4.804;2023-06-14T07:36:42;99171.25;;;28.59
74321;BMP280;62738;45.772;4.804;2023-06-14T07:39:11;99165.19;;;29.61
74321;BMP280;62738;45.772;4.804;2023-06-14T07:41:37;99167.63;;;28.74
74321;BMP280;62738;45.772;4.804;2023-06-14T07:44:04;99173.38;;;28.58
74321;BMP280;62738;45.772;4.804;2023-06-14T07:46:31;99171.91;;;28.83
74321;BMP280;62738;45.772;4.804;2023-06-14T07:48:58;99169.00;;;29.07
74321;BMP280;62738;45.772;4.804;2023-06-14T07:51:24;99176.19;;;28.92
74321;BMP280;62738;45.772;4.804;2023-06-14T07:53:51;99175.81;;;29.81
74321;BMP280;62738;45.772;4.804;2023-06-14T07:56:18;99164.03;;;30.25
74321;BMP280;62738;45.772;4.804;2023-06-14T07:58:45;99174.69;;;29.24
74321;BMP280;62738;45.772;4.804;2023-06-14T08:01:12;99176.91;;;28.87
74321;BMP280;62738;45.772;4.804;2023-06-14T08:03:39;99173.72;;;29.65
74321;BMP280;62738;45.772;4.804;2023-06-14T08:06:06;99171.13;;;29.21
74321;BMP280;62738;45.772;4.804;2023-06-14T08:08:33;99169.59;;;29.34
74321;BMP280;62738;45.772;4.804;2023-06-14T08:11:00;99171.22;;;28.36
74321;BMP280;62738;45.772;4.804;2023-06-14T08:13:27;99162.66;;;28.77
74321;BMP280;62738;45.772;4.804;2023-06-14T08:15:54;99163.97;;;29.16
74321;BMP280;62738;45.772;4.804;2023-06-14T08:18:21;99166.19;;;28.83
74321;BMP280;62738;45.772;4.804;2023-06-14T08:20:48;99166.13;;;27.60
74321;BMP280;62738;45.772;4.804;2023-06-14T08:23:15;99174.06;;;27.98
74321;BMP280;62738;45.772;4.804;2023-06-14T08:25:45;99175.44;;;27.71
74321;BMP280;62738;45.772;4.804;2023-06-14T08:28:12;99160.50;;;27.94
74321;BMP280;62738;45.772;4.804;2023-06-14T08:30:39;99167.41;;;27.29
74321;BMP280;62738;45.772;4.804;2023-06-14T08:33:05;99175.47;;;28.78
74321;BMP280;62738;45.772;4.804;2023-06-14T08:35:42;99174.09;;;28.26
74321;BMP280;62738;45.772;4.804;2023-06-14T08:38:10;99177.63;;;28.75
74321;BMP280;62738;45.772;4.804;2023-06-14T08:40:39;99166.97;;;28.27
74321;BMP280;62738;45.772;4.804;2023-06-14T08:43:06;99173.38;;;28.46
74321;BMP280;62738;45.772;4.804;2023-06-14T08:45:33;99171.94;;;28.43
74321;BMP280;62738;45.772;4.804;2023-06-14T08:48:01;99192.59;;;28.03
74321;BMP280;62738;45.772;4.804;2023-06-14T08:50:28;99191.19;;;28.69
74321;BMP280;62738;45.772;4.804;2023-06-14T08:53:00;99189.06;;;28.85
74321;BMP280;62738;45.772;4.804;2023-06-14T08:55:29;99193.34;;;28.60
74321;BMP280;62738;45.772;4.804;2023-06-14T08:58:01;99189.06;;;28.33
74321;BMP280;62738;45.772;4.804;2023-06-14T09:00:30;99199.78;;;28.28
74321;BMP280;62738;45.772;4.804;2023-06-14T09:03:00;99193.31;;;28.66
74321;BMP280;62738;45.772;4.804;2023-06-14T09:05:27;99194.75;;;28.93
74321;BMP280;62738;45.772;4.804;2023-06-14T09:07:55;99186.22;;;28.55
74321;BMP280;62738;45.772;4.804;2023-06-14T09:10:23;99194.06;;;28.26
74321;BMP280;62738;45.772;4.804;2023-06-14T09:12:53;99200.47;;;28.77
74321;BMP280;62738;45.772;4.804;2023-06-14T09:15:19;99198.34;;;28.37
74321;BMP280;62738;45.772;4.804;2023-06-14T09:17:47;99187.63;;;28.68
74321;BMP280;62738;45.772;4.804;2023-06-14T09:20:14;99185.50;;;28.40
74321;BMP280;62738;45.772;4.804;2023-06-14T09:22:46;99192.63;;;28.82
74321;BMP280;62738;45.772;4.804;2023-06-14T09:25:13;99188.91;;;29.28
74321;BMP280;62738;45.772;4.804;2023-06-14T09:27:59;99200.91;;;29.60
74321;BMP280;62738;45.772;4.804;2023-06-14T09:30:26;99204.63;;;29.33
74321;BMP280;62738;45.772;4.804;2023-06-14T09:32:52;99195.28;;;29.50
74321;BMP280;62738;45.772;4.804;2023-06-14T09:35:20;99192.25;;;29.76
74321;BMP280;62738;45.772;4.804;2023-06-14T09:37:47;99203.31;;;30.35
74321;BMP280;62738;45.772;4.804;2023-06-14T09:40:20;99209.72;;;31.11
74321;BMP280;62738;45.772;4.804;2023-06-14T09:42:47;99199.06;;;31.62
74321;BMP280;62738;45.772;4.804;2023-06-14T09:45:14;99205.28;;;30.55
74321;BMP280;62738;45.772;4.804;2023-06-14T09:47:46;99217.44;;;30.57
74321;BMP280;62738;45.772;4.804;2023-06-14T09:50:31;99210.66;;;30.91
74321;BMP280;62738;45.772;4.804;2023-06-14T09:53:10;99224.22;;;30.96
74321;BMP280;62738;45.772;4.804;2023-06-14T09:55:37;99217.19;;;31.46
74321;BMP280;62738;45.772;4.804;2023-06-14T09:58:07;99222.38;;;30.67
74321;BMP280;62738;45.772;4.804;2023-06-14T10:00:35;99217.69;;;30.23
74321;BMP280;62738;45.772;4.804;2023-06-14T10:03:11;99219.28;;;30.89
74321;BMP280;62738;45.772;4.804;2023-06-14T10:05:39;99214.13;;;31.01
74321;BMP280;62738;45.772;4.804;2023-06-14T10:08:08;99208.06;;;31.30
74321;BMP280;62738;45.772;4.804;2023-06-14T10:10:35;99211.34;;;31.54
74321;BMP280;62738;45.772;4.804;2023-06-14T10:13:05;99214.88;;;31.57
74321;BMP280;62738;45.772;4.804;2023-06-14T10:20:40;99206.03;;;31.22
74321;BMP280;62738;45.772;4.804;2023-06-14T10:23:13;99203.22;;;31.69
74321;BMP280;62738;45.772;4.804;2023-06-14T10:25:43;99195.97;;;31.76
74321;BMP280;62738;45.772;4.804;2023-06-14T10:28:20;99193.44;;;31.54
74321;BMP280;62738;45.772;4.804;2023-06-14T10:31:09;99198.63;;;31.90
74321;BMP280;62738;45.772;4.804;2023-06-14T10:33:48;99202.47;;;32.19
74321;BMP280;62738;45.772;4.804;2023-06-14T10:39:05;99188.78;;;31.24
74321;BMP280;62738;45.772;4.804;2023-06-14T10:41:39;99184.72;;;30.32
74321;BMP280;62738;45.772;4.804;2023-06-14T10:46:39;99189.94;;;31.45
74321;BMP280;62738;45.772;4.804;2023-06-14T10:49:09;99182.03;;;30.87
74321;BMP280;62738;45.772;4.804;2023-06-14T10:51:41;99179.59;;;31.14
74321;BMP280;62738;45.772;4.804;2023-06-14T10:54:21;99174.72;;;31.59
74321;BMP280;62738;45.772;4.804;2023-06-14T10:56:52;99184.88;;;31.48
74321;BMP280;62738;45.772;4.804;2023-06-14T10:59:20;99185.94;;;30.53
74321;BMP280;62738;45.772;4.804;2023-06-14T11:01:57;99185.38;;;30.42
74321;BMP280;62738;45.772;4.804;2023-06-14T11:04:41;99188.31;;;31.06
74321;BMP280;62738;45.772;4.804;2023-06-14T11:10:42;99181.19;;;31.02
74321;BMP280;62738;45.772;4.804;2023-06-14T11:13:09;99193.69;;;31.36
74321;BMP280;62738;45.772;4.804;2023-06-14T11:15:37;99193.91;;;30.47
74321;BMP280;62738;45.772;4.804;2023-06-14T11:18:06;99179.88;;;30.14
74321;BMP280;62738;45.772;4.804;2023-06-14T11:20:34;99182.31;;;30.63
74321;BMP280;62738;45.772;4.804;2023-06-14T11:23:04;99180.66;;;30.03
74321;BMP280;62738;45.772;4.804;2023-06-14T11:25:31;99177.03;;;30.12
74321;BMP280;62738;45.772;4.804;2023-06-14T11:27:58;99181.94;;;30.20
74321;BMP280;62738;45.772;4.804;2023-06-14T11:30:25;99187.78;;;30.06
74321;BMP280;62738;45.772;4.804;2023-06-14T11:32:53;99189.25;;;30.03
74321;BMP280;62738;45.772;4.804;2023-06-14T11:35:25;99187.09;;;30.86
74321;BMP280;62738;45.772;4.804;2023-06-14T11:37:53;99184.47;;;32.23
74321;BMP280;62738;45.772;4.804;2023-06-14T11:40:23;99189.88;;;32.43
74321;BMP280;62738;45.772;4.804;2023-06-14T11:42:58;99171.34;;;30.83
74321;BMP280;62738;45.772;4.804;2023-06-14T11:45:24;99182.97;;;30.69
74321;BMP280;62738;45.772;4.804;2023-06-14T11:47:54;99177.63;;;31.55
74321;BMP280;62738;45.772;4.804;2023-06-14T11:50:20;99170.31;;;31.11
74321;BMP280;62738;45.772;4.804;2023-06-14T11:52:56;99171.28;;;30.89
74321;BMP280;62738;45.772;4.804;2023-06-14T11:55:23;99170.97;;;31.16
74321;BMP280;62738;45.772;4.804;2023-06-14T11:57:51;99169.72;;;31.00
74321;BMP280;62738;45.772;4.804;2023-06-14T12:00:24;99178.00;;;30.66
74321;BMP280;62738;45.772;4.804;2023-06-14T12:02:55;99168.38;;;30.93
74321;BMP280;62738;45.772;4.804;2023-06-14T12:05:25;99166.88;;;31.55
74321;BMP280;62738;45.772;4.804;2023-06-14T12:08:00;99174.47;;;30.57
74321;BMP280;62738;45.772;4.804;2023-06-14T12:10:27;99170.25;;;30.50
74321;BMP280;62738;45.772;4.804;2023-06-14T12:13:00;99167.34;;;30.54
74321;BMP280;62738;45.772;4.804;2023-06-14T12:15:31;99164.59;;;31.11
74321;BMP280;62738;45.772;4.804;2023-06-14T12:17:58;99168.06;;;31.22
74321;BMP280;62738;45.772;4.804;2023-06-14T12:20:29;99172.50;;;31.65
74321;BMP280;62738;45.772;4.804;2023-06-14T12:23:03;99176.19;;;30.26
74321;BMP280;62738;45.772;4.804;2023-06-14T12:25:34;99173.44;;;30.91
74321;BMP280;62738;45.772;4.804;2023-06-14T12:28:08;99155.50;;;30.94
74321;BMP280;62738;45.772;4.804;2023-06-14T12:30:36;99165.53;;;30.91
74321;BMP280;62738;45.772;4.804;2023-06-14T12:33:03;99174.19;;;30.85
74321;BMP280;62738;45.772;4.804;2023-06-14T12:35:30;99164.91;;;31.42
74321;BMP280;62738;45.772;4.804;2023-06-14T12:37:57;99159.41;;;31.24
74321;BMP280;62738;45.772;4.804;2023-06-14T12:40:25;99180.88;;;31.27
74321;BMP280;62738;45.772;4.804;2023-06-14T12:42:53;99170.78;;;30.71
74321;BMP280;62738;45.772;4.804;2023-06-14T12:45:19;99168.13;;;30.47
74321;BMP280;62738;45.772;4.804;2023-06-14T12:47:46;99164.59;;;31.64
74321;BMP280;62738;45.772;4.804;2023-06-14T12:50:13;99163.38;;;31.49
74321;BMP280;62738;45.772;4.804;2023-06-14T12:52:40;99168.88;;;31.67
74321;BMP280;62738;45.772;4.804;2023-06-14T12:55:07;99158.22;;;31.59
74321;BMP280;62738;45.772;4.804;2023-06-14T12:57:34;99162.31;;;31.22
74321;BMP280;62738;45.772;4.804;2023-06-14T13:00:04;99160.22;;;32.55
74321;BMP280;62738;45.772;4.804;2023-06-14T13:02:31;99175.53;;;31.51
74321;BMP280;62738;45.772;4.804;2023-06-14T13:04:58;99166.63;;;31.21
74321;BMP280;62738;45.772;4.804;2023-06-14T13:07:25;99168.09;;;31.18
74321;BMP280;62738;45.772;4.804;2023-06-14T13:09:51;99162.75;;;31.42
74321;BMP280;62738;45.772;4.804;2023-06-14T13:12:18;99162.72;;;31.95
74321;BMP280;62738;45.772;4.804;2023-06-14T13:14:44;99160.34;;;32.49
74321;BMP280;62738;45.772;4.804;2023-06-14T13:17:11;99165.03;;;32.27
74321;BMP280;62738;45.772;4.804;2023-06-14T13:19:38;99159.09;;;32.38
74321;BMP280;62738;45.772;4.804;2023-06-14T13:22:04;99160.22;;;31.16
74321;BMP280;62738;45.772;4.804;2023-06-14T13:24:31;99159.28;;;31.36
74321;BMP280;62738;45.772;4.804;2023-06-14T13:26:58;99166.53;;;31.78
74321;BMP280;62738;45.772;4.804;2023-06-14T13:29:26;99162.63;;;31.50
74321;BMP280;62738;45.772;4.804;2023-06-14T13:31:54;99187.50;;;31.66
74321;BMP280;62738;45.772;4.804;2023-06-14T13:34:20;99173.47;;;31.95
74321;BMP280;62738;45.772;4.804;2023-06-14T13:36:49;99177.63;;;33.82
74321;BMP280;62738;45.772;4.804;2023-06-14T13:39:16;99185.03;;;36.19
74321;BMP280;62738;45.772;4.804;2023-06-14T13:41:42;99173.16;;;37.24
74321;BMP280;62738;45.772;4.804;2023-06-14T13:44:09;99166.44;;;37.65
74321;BMP280;62738;45.772;4.804;2023-06-14T13:46:42;99166.44;;;37.65
74321;BMP280;62738;45.772;4.804;2023-06-14T13:49:09;99163.28;;;38.38
74321;BMP280;62738;45.772;4.804;2023-06-14T13:51:37;99159.31;;;39.80
74321;BMP280;62738;45.772;4.804;2023-06-14T13:54:04;99173.53;;;39.57
74321;BMP280;62738;45.772;4.804;2023-06-14T13:56:30;99175.53;;;39.61
74321;BMP280;62738;45.772;4.804;2023-06-14T13:58:57;99160.97;;;38.88
74321;BMP280;62738;45.772;4.804;2023-06-14T14:01:24;99146.44;;;40.44
74321;BMP280;62738;45.772;4.804;2023-06-14T14:03:52;99144.91;;;41.71
74321;BMP280;62738;45.772;4.804;2023-06-14T14:06:19;99159.34;;;38.76
74321;BMP280;62738;45.772;4.804;2023-06-14T14:08:46;99158.13;;;38.40
74321;BMP280;62738;45.772;4.804;2023-06-14T14:11:13;99178.94;;;39.36
74321;BMP280;62738;45.772;4.804;2023-06-14T14:13:42;99162.16;;;38.78
74321;BMP280;62738;45.772;4.804;2023-06-14T14:16:09;99160.13;;;38.60
74321;BMP280;62738;45.772;4.804;2023-06-14T14:18:37;99147.13;;;40.05
74321;BMP280;62738;45.772;4.804;2023-06-14T14:21:05;99137.63;;;39.21
74321;BMP280;62738;45.772;4.804;2023-06-14T14:23:32;99145.91;;;40.00
74321;BMP280;62738;45.772;4.804;2023-06-14T14:25:58;99155.44;;;39.13
74321;BMP280;62738;45.772;4.804;2023-06-14T14:28:27;99160.38;;;40.69
74321;BMP280;62738;45.772;4.804;2023-06-14T14:30:54;99150.28;;;40.53
74321;BMP280;62738;45.772;4.804;2023-06-14T14:33:21;99141.88;;;40.87
74321;BMP280;62738;45.772;4.804;2023-06-14T14:35:48;99142.84;;;42.05